Time;durP1;ratioP1;P1;durP2;ratioP2;P2;SDS_P1;SDS_P2;PMS_P1;PMS_P2;Temp;Humidity;BMP_temperature;BMP_pressure;BME280_temperature;BME280_humidity;BME280_pressure;Samples;Min_cycle;Max_cycle;Signal;HPM_P1;HPM_P2
2023/04/04 00:02:21;;;;;;;11.23;4.87;;;1.90;99.90;;;;;;5044429;28;20232;-80
2023/04/04 00:04:47;;;;;;;8.70;4.90;;;1.90;99.90;;;;;;5045633;28;20193;-79
2023/04/04 00:07:15;;;;;;;6.87;4.30;;;1.80;99.90;;;;;;5048657;28;20228;-80
2023/04/04 00:09:41;;;;;;;6.23;4.50;;;1.80;99.90;;;;;;5039694;28;20239;-79
2023/04/04 00:12:08;;;;;;;8.00;4.87;;;1.80;99.90;;;;;;5043509;28;20215;-78
2023/04/04 00:14:35;;;;;;;6.97;5.03;;;1.80;99.90;;;;;;5046355;28;20348;-79
2023/04/04 00:17:02;;;;;;;7.03;4.70;;;1.70;99.90;;;;;;5043630;28;20239;-79
2023/04/04 00:19:29;;;;;;;7.90;4.97;;;1.70;99.90;;;;;;5023671;28;20320;-81
2023/04/04 00:21:56;;;;;;;6.37;4.57;;;1.70;99.90;;;;;;5025763;28;20217;-79
2023/04/04 00:24:23;;;;;;;7.63;4.77;;;1.70;99.90;;;;;;5011805;28;20238;-79
2023/04/04 00:26:50;;;;;;;9.83;4.87;;;1.60;99.90;;;;;;5012120;28;20220;-79
2023/04/04 00:29:17;;;;;;;6.77;4.93;;;1.60;99.90;;;;;;5012510;28;20330;-79
2023/04/04 00:31:44;;;;;;;5.90;4.33;;;1.60;99.90;;;;;;5026288;28;20334;-78
2023/04/04 00:34:11;;;;;;;6.43;4.93;;;1.90;99.90;;;;;;5022533;28;20228;-78
2023/04/04 00:36:38;;;;;;;6.67;4.97;;;1.50;99.90;;;;;;5022465;28;20338;-80
2023/04/04 00:39:05;;;;;;;9.73;5.67;;;1.50;99.90;;;;;;5024077;28;20207;-79
2023/04/04 00:41:32;;;;;;;8.50;5.10;;;1.50;99.90;;;;;;5022484;28;20787;-79
2023/04/04 00:43:59;;;;;;;8.23;5.60;;;1.40;99.90;;;;;;5022629;28;20204;-78
2023/04/04 00:46:28;;;;;;;11.27;5.47;;;1.30;99.90;;;;;;5021072;28;20286;-78
2023/04/04 00:48:55;;;;;;;6.87;4.50;;;1.40;99.90;;;;;;5029966;28;20249;-79
2023/04/04 00:51:22;;;;;;;10.00;5.40;;;1.40;99.90;;;;;;5021880;28;21004;-78
2023/04/04 00:53:50;;;;;;;10.17;4.97;;;1.30;99.90;;;;;;5019249;28;20278;-80
2023/04/04 00:56:18;;;;;;;9.30;5.13;;;1.30;99.90;;;;;;5027097;28;20228;-80
2023/04/04 00:58:45;;;;;;;8.53;4.87;;;1.70;99.90;;;;;;5023590;28;20216;-79
2023/04/04 01:01:12;;;;;;;9.17;5.43;;;1.30;99.90;;;;;;5022511;28;20204;-78
2023/04/04 01:03:40;;;;;;;9.13;4.73;;;1.50;99.90;;;;;;5022016;28;20220;-79
2023/04/04 01:06:07;;;;;;;8.60;4.90;;;1.20;99.90;;;;;;5026631;28;20206;-79
2023/04/04 01:08:39;;;;;;;7.83;5.30;;;1.40;99.90;;;;;;5023021;28;20890;-79
2023/04/04 01:11:06;;;;;;;8.90;5.57;;;1.10;99.90;;;;;;5023460;28;20223;-78
2023/04/04 01:13:32;;;;;;;6.90;4.93;;;1.10;99.90;;;;;;5019855;28;20633;-78
2023/04/04 01:16:00;;;;;;;8.40;5.13;;;1.20;99.90;;;;;;5026715;28;20287;-80
2023/04/04 01:18:28;;;;;;;10.03;5.33;;;0.90;99.90;;;;;;5032083;28;20307;-78
2023/04/04 01:21:05;;;;;;;6.27;4.80;;;1.90;99.90;;;;;;5041123;28;20287;-78
2023/04/04 01:23:49;;;;;;;7.63;5.20;;;1.10;99.90;;;;;;5043236;28;20239;-79
2023/04/04 01:26:16;;;;;;;9.27;5.57;;;1.00;99.90;;;;;;5017027;28;20217;-79
2023/04/04 01:28:43;;;;;;;9.40;5.30;;;0.90;99.90;;;;;;5037949;28;20203;-79
2023/04/04 01:31:13;;;;;;;8.63;5.30;;;0.90;99.90;;;;;;5038500;28;20680;-78
2023/04/04 01:33:51;;;;;;;11.20;5.73;;;1.70;99.90;;;;;;5023632;28;20724;-78
2023/04/04 01:36:29;;;;;;;9.37;5.80;;;0.80;99.90;;;;;;5040362;28;20206;-78
2023/04/04 01:39:07;;;;;;;12.30;6.47;;;0.80;99.90;;;;;;5042405;28;20205;-79
2023/04/04 01:41:38;;;;;;;9.57;5.43;;;0.90;99.90;;;;;;5027135;28;20323;-79
2023/04/04 01:44:05;;;;;;;9.00;5.20;;;0.80;99.90;;;;;;5030279;28;20241;-77
2023/04/04 01:46:32;;;;;;;7.67;5.27;;;0.70;99.90;;;;;;5037674;28;20290;-79
2023/04/04 01:48:59;;;;;;;8.83;5.93;;;1.40;99.90;;;;;;5036732;28;20675;-78
2023/04/04 01:51:26;;;;;;;11.70;5.90;;;0.30;99.90;;;;;;5040543;28;20208;-79
2023/04/04 01:53:53;;;;;;;9.77;5.60;;;0.70;99.90;;;;;;5042084;28;20589;-78
2023/04/04 01:56:20;;;;;;;10.53;5.47;;;;;;;;;;5032148;28;20195;-77
2023/04/04 01:58:47;;;;;;;9.67;5.53;;;0.70;99.90;;;;;;5043157;28;20238;-78
2023/04/04 02:01:14;;;;;;;10.63;5.97;;;0.60;99.90;;;;;;5039352;28;20672;-79
2023/04/04 02:03:41;;;;;;;10.23;5.33;;;0.60;99.90;;;;;;5026030;28;20226;-78
2023/04/04 02:06:08;;;;;;;9.47;5.27;;;0.60;99.90;;;;;;5043147;28;20257;-78
2023/04/04 02:08:35;;;;;;;10.27;5.30;;;0.60;99.90;;;;;;5042037;28;20215;-79
2023/04/04 02:11:02;;;;;;;12.93;5.23;;;0.50;99.90;;;;;;5039224;28;20669;-77
2023/04/04 02:13:28;;;;;;;8.20;5.03;;;0.50;99.90;;;;;;5023649;28;20294;-78
2023/04/04 02:15:55;;;;;;;12.97;6.27;;;0.40;99.90;;;;;;5042119;28;20199;-78
2023/04/04 02:18:23;;;;;;;9.83;5.90;;;0.40;99.90;;;;;;5022982;28;20239;-79
2023/04/04 02:20:56;;;;;;;6.87;5.13;;;0.40;99.90;;;;;;5041316;28;20241;-78
2023/04/04 02:23:23;;;;;;;9.40;5.33;;;0.40;99.90;;;;;;5039429;28;20242;-78
2023/04/04 02:25:50;;;;;;;8.67;5.37;;;0.40;99.90;;;;;;5049160;28;20231;-77
2023/04/04 02:28:18;;;;;;;7.57;5.17;;;0.40;99.90;;;;;;5045085;28;20260;-77
2023/04/04 02:30:46;;;;;;;11.30;6.30;;;0.40;99.90;;;;;;5046556;28;20739;-77
2023/04/04 02:33:12;;;;;;;8.77;5.00;;;0.40;99.90;;;;;;5047004;28;20257;-76
2023/04/04 02:35:39;;;;;;;9.07;4.83;;;0.40;99.90;;;;;;5043120;28;20221;-78
2023/04/04 02:38:06;;;;;;;8.63;5.77;;;0.30;99.90;;;;;;5028707;28;20194;-80
2023/04/04 02:40:34;;;;;;;6.63;4.90;;;0.30;99.90;;;;;;5042457;28;20215;-78
2023/04/04 02:43:01;;;;;;;9.83;6.10;;;0.30;99.90;;;;;;5034031;28;20758;-77
2023/04/04 02:45:28;;;;;;;10.33;5.33;;;0.30;99.90;;;;;;5045081;28;20995;-77
2023/04/04 02:47:54;;;;;;;9.17;6.13;;;0.30;99.90;;;;;;5042690;28;20300;-77
2023/04/04 02:50:21;;;;;;;9.30;5.37;;;0.30;99.90;;;;;;5044978;28;20736;-80
2023/04/04 02:52:48;;;;;;;11.00;5.87;;;0.30;99.90;;;;;;5040898;28;20972;-78
2023/04/04 02:55:15;;;;;;;9.67;5.60;;;0.20;99.90;;;;;;5040425;28;20254;-77
2023/04/04 02:57:42;;;;;;;11.70;5.50;;;0.20;99.90;;;;;;5033048;28;20819;-79
2023/04/04 03:00:10;;;;;;;11.90;6.00;;;0.20;99.90;;;;;;5041316;28;20581;-77
2023/04/04 03:02:37;;;;;;;11.40;5.90;;;0.20;99.90;;;;;;5044447;28;20218;-77
2023/04/04 03:05:04;;;;;;;11.97;6.33;;;0.10;99.90;;;;;;5049368;28;20255;-77
2023/04/04 03:07:31;;;;;;;8.83;5.97;;;0.00;99.90;;;;;;5041591;28;20289;-78
2023/04/04 03:09:58;;;;;;;10.03;5.40;;;0.10;99.90;;;;;;5041418;28;20290;-78
2023/04/04 03:12:26;;;;;;;11.43;6.23;;;0.10;99.90;;;;;;5043294;28;20197;-77
2023/04/04 03:14:53;;;;;;;12.73;6.10;;;0.10;99.90;;;;;;5048251;28;20588;-78
2023/04/04 03:17:20;;;;;;;11.53;6.03;;;0.00;99.90;;;;;;5040698;28;20250;-79
2023/04/04 03:19:47;;;;;;;10.17;5.87;;;0.00;99.90;;;;;;5045521;28;20222;-77
2023/04/04 03:22:14;;;;;;;13.07;6.33;;;0.00;99.90;;;;;;5044646;28;20209;-76
2023/04/04 03:24:42;;;;;;;13.43;6.20;;;0.00;99.90;;;;;;5041022;28;20306;-77
2023/04/04 03:27:08;;;;;;;7.73;5.13;;;0.00;99.90;;;;;;5041275;28;20650;-77
2023/04/04 03:29:35;;;;;;;9.87;6.10;;;0.00;99.90;;;;;;5044684;28;20555;-77
2023/04/04 03:32:02;;;;;;;11.37;6.40;;;-0.10;99.90;;;;;;5045447;28;20252;-77
2023/04/04 03:34:30;;;;;;;10.03;5.43;;;-0.10;99.90;;;;;;5033991;28;20697;-77
2023/04/04 03:36:57;;;;;;;9.37;5.43;;;-0.10;99.90;;;;;;5041530;28;20201;-77
2023/04/04 03:39:30;;;;;;;10.37;6.00;;;-0.10;99.90;;;;;;5044439;28;20741;-77
2023/04/04 03:41:57;;;;;;;11.50;6.17;;;-0.10;99.90;;;;;;5023824;28;20202;-77
2023/04/04 03:44:24;;;;;;;11.60;6.87;;;-0.20;99.90;;;;;;5044113;28;20237;-76
2023/04/04 03:46:51;;;;;;;11.37;6.00;;;-0.20;99.90;;;;;;5043761;28;20627;-81
2023/04/04 03:49:18;;;;;;;10.87;6.60;;;-0.20;99.90;;;;;;5040418;28;20206;-77
2023/04/04 03:51:44;;;;;;;14.33;6.37;;;-0.20;99.90;;;;;;5043424;28;20308;-77
2023/04/04 03:54:11;;;;;;;11.63;6.57;;;-0.30;99.90;;;;;;5040236;28;20746;-83
2023/04/04 03:56:38;;;;;;;10.60;6.33;;;-0.30;99.90;;;;;;5040875;28;20245;-78
2023/04/04 03:59:05;;;;;;;10.17;6.13;;;-0.30;99.90;;;;;;5028316;28;20842;-79
2023/04/04 04:01:32;;;;;;;13.57;7.23;;;-0.30;99.90;;;;;;5045264;28;20603;-78
2023/04/04 04:04:00;;;;;;;11.33;6.20;;;-0.30;99.90;;;;;;5043693;28;20327;-79
2023/04/04 04:06:27;;;;;;;12.33;6.17;;;-0.20;99.90;;;;;;5043303;28;20207;-78
2023/04/04 04:08:55;;;;;;;10.30;6.23;;;-0.30;99.90;;;;;;5024899;28;20205;-78
2023/04/04 04:11:23;;;;;;;10.13;6.10;;;-0.30;99.90;;;;;;5043169;28;20264;-80
2023/04/04 04:13:50;;;;;;;9.77;6.33;;;-0.30;99.90;;;;;;5033413;28;20229;-78
2023/04/04 04:16:16;;;;;;;13.33;7.10;;;-0.40;99.90;;;;;;5022502;28;20318;-78
2023/04/04 04:18:43;;;;;;;14.53;6.70;;;-0.30;99.90;;;;;;5044647;28;20226;-77
2023/04/04 04:21:10;;;;;;;13.33;7.13;;;-0.40;99.90;;;;;;5039386;28;20234;-77
2023/04/04 04:23:37;;;;;;;10.93;6.70;;;-0.40;99.90;;;;;;5041890;28;20232;-77
2023/04/04 04:26:05;;;;;;;12.90;6.87;;;-0.40;99.90;;;;;;5044673;28;20204;-77
2023/04/04 04:28:32;;;;;;;16.30;7.73;;;-0.50;99.90;;;;;;5041183;28;20611;-78
2023/04/04 04:31:07;;;;;;;13.47;7.43;;;-0.50;99.90;;;;;;5044558;28;20202;-78
2023/04/04 04:33:35;;;;;;;12.10;7.77;;;-0.50;99.90;;;;;;5040092;28;20282;-77
2023/04/04 04:36:03;;;;;;;11.03;7.03;;;-0.50;99.90;;;;;;5043251;28;20575;-76
2023/04/04 04:38:31;;;;;;;13.17;6.70;;;-0.50;99.90;;;;;;5043263;28;20311;-81
2023/04/04 04:40:58;;;;;;;15.53;7.20;;;-0.50;99.90;;;;;;5043349;28;20248;-78
2023/04/04 04:43:25;;;;;;;12.97;7.10;;;-0.50;99.90;;;;;;5041965;28;20778;-76
2023/04/04 04:45:52;;;;;;;13.77;7.80;;;-0.50;99.90;;;;;;5040740;28;20249;-77
2023/04/04 04:48:19;;;;;;;12.63;7.53;;;-0.50;99.90;;;;;;5039820;28;20317;-77
2023/04/04 04:50:47;;;;;;;13.87;7.47;;;-0.50;99.90;;;;;;5039517;28;20218;-77
2023/04/04 04:53:14;;;;;;;14.03;6.90;;;-0.50;99.90;;;;;;5042165;28;20213;-77
2023/04/04 04:55:44;;;;;;;18.33;8.67;;;-0.60;99.90;;;;;;5044676;28;20229;-78
2023/04/04 04:58:11;;;;;;;13.87;8.00;;;-0.60;99.90;;;;;;5039623;28;20693;-77
2023/04/04 05:00:38;;;;;;;13.33;7.70;;;-0.60;99.90;;;;;;5043149;28;20255;-77
2023/04/04 05:03:08;;;;;;;12.13;7.33;;;-0.60;99.90;;;;;;5024643;28;20220;-78
2023/04/04 05:05:35;;;;;;;13.07;8.07;;;-0.60;99.90;;;;;;5045597;28;20214;-75
2023/04/04 05:08:03;;;;;;;13.20;7.30;;;-0.60;99.90;;;;;;5047283;28;20197;-78
2023/04/04 05:10:30;;;;;;;12.00;7.50;;;-0.60;99.90;;;;;;5044754;28;20248;-77
2023/04/04 05:12:57;;;;;;;14.50;7.60;;;-0.60;99.90;;;;;;5030346;28;20210;-76
2023/04/04 05:15:30;;;;;;;13.70;7.70;;;-0.60;99.90;;;;;;5046440;28;20221;-78
2023/04/04 05:17:58;;;;;;;13.37;8.60;;;-0.60;99.90;;;;;;5040141;28;20228;-79
2023/04/04 05:20:24;;;;;;;15.20;9.00;;;-0.60;99.90;;;;;;5025608;28;20550;-77
2023/04/04 05:22:51;;;;;;;19.63;8.93;;;-0.60;99.90;;;;;;5040731;28;20222;-76
2023/04/04 05:25:18;;;;;;;14.63;8.33;;;-0.60;99.90;;;;;;5042833;28;20693;-76
2023/04/04 05:27:48;;;;;;;14.87;9.10;;;-0.60;99.90;;;;;;5043919;28;20755;-77
2023/04/04 05:30:15;;;;;;;16.70;8.63;;;-0.60;99.90;;;;;;5043532;28;20288;-77
2023/04/04 05:32:45;;;;;;;15.47;8.83;;;-0.50;99.90;;;;;;5030773;28;20637;-76
2023/04/04 05:35:12;;;;;;;16.60;8.80;;;-0.50;99.90;;;;;;5047540;28;20248;-77
2023/04/04 05:37:40;;;;;;;15.00;8.63;;;-0.50;99.90;;;;;;5049947;28;20292;-76
2023/04/04 05:40:07;;;;;;;15.20;9.27;;;-0.50;99.90;;;;;;5044150;28;20288;-76
2023/04/04 05:42:34;;;;;;;16.10;9.00;;;-0.50;99.90;;;;;;5041391;28;20206;-76
2023/04/04 05:45:02;;;;;;;16.70;9.47;;;-0.40;99.90;;;;;;5044585;28;20209;-75
2023/04/04 05:47:29;;;;;;;14.77;9.00;;;-0.40;99.90;;;;;;5046787;28;20299;-75
2023/04/04 05:49:56;;;;;;;21.27;10.53;;;-0.40;99.90;;;;;;5040211;28;20198;-77
2023/04/04 05:52:23;;;;;;;18.40;10.33;;;-0.30;99.90;;;;;;5039918;28;20233;-76
2023/04/04 05:54:50;;;;;;;17.00;9.13;;;-0.30;99.90;;;;;;5041004;28;20257;-76
2023/04/04 05:57:17;;;;;;;15.30;9.70;;;-0.20;99.90;;;;;;5041055;28;20237;-79
2023/04/04 05:59:44;;;;;;;14.60;9.33;;;-0.10;99.90;;;;;;5040999;28;20609;-78
2023/04/04 06:02:11;;;;;;;14.40;9.37;;;-0.10;99.90;;;;;;5038680;28;20275;-77
2023/04/04 06:04:39;;;;;;;14.40;8.97;;;0.00;99.90;;;;;;5043006;28;20202;-76
2023/04/04 06:07:06;;;;;;;17.40;10.40;;;0.10;99.90;;;;;;5039902;28;20201;-77
2023/04/04 06:09:35;;;;;;;16.83;9.40;;;0.20;99.90;;;;;;5042853;28;20194;-77
2023/04/04 06:12:03;;;;;;;19.17;10.17;;;0.30;99.90;;;;;;5040790;28;20843;-75
2023/04/04 06:14:30;;;;;;;20.23;10.00;;;0.40;99.90;;;;;;5040978;28;20212;-75
2023/04/04 06:16:57;;;;;;;18.87;9.00;;;0.50;99.90;;;;;;5040922;28;20227;-79
2023/04/04 06:19:24;;;;;;;18.10;9.40;;;0.60;99.90;;;;;;5040561;28;20271;-76
2023/04/04 06:21:51;;;;;;;13.63;9.20;;;0.70;99.90;;;;;;5040771;28;20205;-76
2023/04/04 06:24:18;;;;;;;16.33;8.93;;;0.80;99.90;;;;;;5030011;28;20251;-77
2023/04/04 06:26:45;;;;;;;13.50;8.57;;;0.90;99.90;;;;;;5036131;28;20212;-77
2023/04/04 06:29:12;;;;;;;14.73;9.07;;;1.00;99.90;;;;;;5040155;28;20267;-77
2023/04/04 06:31:42;;;;;;;17.67;9.20;;;1.10;99.90;;;;;;5030050;28;20209;-76
2023/04/04 06:34:08;;;;;;;16.07;8.97;;;1.30;99.90;;;;;;5016934;28;20222;-77
2023/04/04 06:36:35;;;;;;;14.33;9.97;;;1.40;99.90;;;;;;5039761;28;20686;-77
2023/04/04 06:39:02;;;;;;;12.10;8.07;;;1.60;99.90;;;;;;5043870;28;20198;-78
2023/04/04 06:41:29;;;;;;;14.57;8.93;;;1.70;99.90;;;;;;5041761;28;20224;-76
2023/04/04 06:43:57;;;;;;;14.20;8.90;;;1.90;99.90;;;;;;5030049;28;20202;-77
2023/04/04 06:46:25;;;;;;;13.73;7.93;;;2.10;99.90;;;;;;5036446;28;20228;-76
2023/04/04 06:48:53;;;;;;;12.90;6.67;;;2.30;99.90;;;;;;5040042;28;20222;-78
2023/04/04 06:51:20;;;;;;;15.40;7.67;;;2.50;99.90;;;;;;5037451;28;20213;-77
2023/04/04 06:53:47;;;;;;;12.17;7.70;;;2.60;99.90;;;;;;5040957;28;20248;-77
2023/04/04 06:56:14;;;;;;;14.93;7.93;;;2.70;99.90;;;;;;5041370;28;20248;-78
2023/04/04 06:58:42;;;;;;;17.23;9.30;;;2.90;99.90;;;;;;5038581;28;20208;-77
2023/04/04 07:01:09;;;;;;;10.23;7.20;;;3.50;99.90;;;;;;5040302;28;20542;-78
2023/04/04 07:03:36;;;;;;;10.20;6.77;;;5.40;99.90;;;;;;5038170;28;20218;-76
2023/04/04 07:06:03;;;;;;;13.47;6.33;;;5.50;99.90;;;;;;5044227;28;20211;-76
2023/04/04 07:08:32;;;;;;;10.13;7.03;;;6.50;99.90;;;;;;5037963;28;20295;-76
2023/04/04 07:11:03;;;;;;;9.30;6.97;;;7.50;99.90;;;;;;5042358;28;20214;-76
2023/04/04 07:13:30;;;;;;;7.63;5.90;;;;;;;;;;5044905;28;20567;-78
2023/04/04 07:15:57;;;;;;;7.33;5.47;;;8.70;99.90;;;;;;5042487;28;20227;-79
2023/04/04 07:18:24;;;;;;;10.20;6.00;;;9.00;99.90;;;;;;5043921;28;20272;-79
2023/04/04 07:20:51;;;;;;;8.03;5.93;;;9.10;99.90;;;;;;5044283;28;20208;-78
2023/04/04 07:23:18;;;;;;;10.40;5.23;;;9.40;99.90;;;;;;5043752;28;20232;-78
2023/04/04 07:25:45;;;;;;;7.50;5.63;;;9.80;99.90;;;;;;5044122;28;20248;-77
2023/04/04 07:28:12;;;;;;;10.93;5.53;;;10.40;99.90;;;;;;5041365;28;20252;-77
2023/04/04 07:30:40;;;;;;;7.17;5.63;;;11.10;99.90;;;;;;5044704;28;20697;-77
2023/04/04 07:33:07;;;;;;;8.70;4.90;;;11.80;99.90;;;;;;5043488;28;20283;-79
2023/04/04 07:35:34;;;;;;;7.17;4.60;;;12.40;99.90;;;;;;5042678;28;20661;-78
2023/04/04 07:38:01;;;;;;;5.87;4.50;;;12.70;99.90;;;;;;5044385;28;20209;-78
2023/04/04 07:40:28;;;;;;;9.32;4.68;;;13.10;99.90;;;;;;5023076;28;20242;-77
2023/04/04 07:42:55;;;;;;;7.88;5.03;;;13.30;99.90;;;;;;5025228;28;20255;-78
2023/04/04 07:45:22;;;;;;;9.30;4.65;;;13.40;99.90;;;;;;5042146;28;20237;-78
2023/04/04 07:47:49;;;;;;;8.80;4.38;;;13.50;99.90;;;;;;5042904;28;20637;-79
2023/04/04 07:50:17;;;;;;;6.35;4.65;;;13.80;99.90;;;;;;5043581;28;20604;-78
2023/04/04 07:52:51;;;;;;;7.97;5.13;;;14.00;99.90;;;;;;5046943;28;20237;-78
2023/04/04 07:55:19;;;;;;;9.40;4.88;;;14.30;99.90;;;;;;5034151;28;20259;-77
2023/04/04 07:57:46;;;;;;;6.60;4.60;;;14.40;99.90;;;;;;5040214;28;20224;-78
2023/04/04 08:00:13;;;;;;;6.43;4.57;;;14.60;99.90;;;;;;5041009;28;20271;-78
2023/04/04 08:02:42;;;;;;;8.10;5.03;;;14.80;99.90;;;;;;5042017;28;20225;-79
2023/04/04 08:05:09;;;;;;;6.88;4.70;;;15.00;99.90;;;;;;5045682;28;20615;-77
2023/04/04 08:07:36;;;;;;;8.82;4.97;;;15.20;99.90;;;;;;5040119;28;20296;-76
2023/04/04 08:10:03;;;;;;;6.78;4.90;;;15.30;99.90;;;;;;5042172;28;20296;-78
2023/04/04 08:12:31;;;;;;;5.53;4.45;;;15.50;99.90;;;;;;5033469;28;20221;-77
2023/04/04 08:14:58;;;;;;;6.72;4.28;;;15.70;99.90;;;;;;5043098;28;20210;-76
2023/04/04 08:17:25;;;;;;;8.23;4.45;;;16.00;99.90;;;;;;5042360;28;20235;-77
2023/04/04 08:19:52;;;;;;;7.38;4.30;;;15.60;99.90;;;;;;5042888;28;20868;-76
2023/04/04 08:22:19;;;;;;;7.82;4.90;;;15.70;99.90;;;;;;5042538;28;20255;-78
2023/04/04 08:24:45;;;;;;;5.78;3.97;;;15.70;99.90;;;;;;5039656;28;20205;-77
2023/04/04 08:27:13;;;;;;;8.23;3.88;;;15.60;99.90;;;;;;5046518;28;20278;-77
2023/04/04 08:29:40;;;;;;;8.40;4.45;;;16.00;99.80;;;;;;5043666;28;20205;-79
2023/04/04 08:32:08;;;;;;;6.15;4.50;;;15.80;99.10;;;;;;5041342;28;20205;-79
2023/04/04 08:34:35;;;;;;;7.63;3.63;;;15.70;98.60;;;;;;5042634;28;20689;-76
2023/04/04 08:37:02;;;;;;;5.65;3.88;;;15.70;99.40;;;;;;5039526;28;20221;-77
2023/04/04 08:39:28;;;;;;;5.90;3.67;;;15.50;98.10;;;;;;5043747;28;20253;-76
2023/04/04 08:42:04;;;;;;;5.82;3.38;;;15.70;98.00;;;;;;5043377;28;20201;-77
2023/04/04 08:44:32;;;;;;;5.85;3.17;;;15.80;97.20;;;;;;5039339;28;20209;-77
2023/04/04 08:47:08;;;;;;;5.35;3.10;;;15.90;95.70;;;;;;5041977;28;20201;-77
2023/04/04 08:49:41;;;;;;;5.07;2.80;;;15.40;93.90;;;;;;5043213;28;20201;-78
2023/04/04 08:52:10;;;;;;;4.25;2.92;;;15.10;95.20;;;;;;5040836;28;20298;-78
2023/04/04 08:54:39;;;;;;;6.68;3.40;;;15.00;94.70;;;;;;5022699;28;20214;-78
2023/04/04 08:57:07;;;;;;;4.35;3.00;;;15.00;95.30;;;;;;5043894;28;20709;-79
2023/04/04 08:59:34;;;;;;;6.88;3.10;;;15.20;96.20;;;;;;5040787;28;20217;-80
2023/04/04 09:02:14;;;;;;;6.28;2.95;;;15.00;94.50;;;;;;5040634;28;20216;-80
2023/04/04 09:04:43;;;;;;;5.97;2.63;;;14.90;95.10;;;;;;5040752;28;20228;-79
2023/04/04 09:07:31;;;;;;;4.78;2.38;;;14.80;93.90;;;;;;5039390;28;20241;-80
2023/04/04 09:09:58;;;;;;;4.47;2.53;;;14.50;92.70;;;;;;5041267;28;20288;-79
2023/04/04 09:12:26;;;;;;;4.18;2.47;;;14.70;93.60;;;;;;5041903;28;20205;-80
2023/04/04 09:14:55;;;;;;;5.45;2.88;;;14.70;93.10;;;;;;5044119;28;20208;-79
2023/04/04 09:17:22;;;;;;;6.88;3.28;;;14.70;93.40;;;;;;5038083;28;20332;-80
2023/04/04 09:19:49;;;;;;;4.28;2.80;;;14.60;94.00;;;;;;5043737;28;20667;-80
2023/04/04 09:22:16;;;;;;;6.88;2.53;;;14.70;93.80;;;;;;5042857;28;20217;-79
2023/04/04 09:24:43;;;;;;;3.92;2.50;;;14.80;93.90;;;;;;5039055;28;20547;-79
2023/04/04 09:27:11;;;;;;;3.85;2.30;;;15.00;93.00;;;;;;5041838;28;20237;-79
2023/04/04 09:29:39;;;;;;;6.03;2.35;;;14.90;92.00;;;;;;5043183;28;20630;-79
2023/04/04 09:32:12;;;;;;;4.63;2.60;;;14.40;91.10;;;;;;5038128;28;20206;-78
2023/04/04 09:34:40;;;;;;;5.60;2.87;;;14.30;91.90;;;;;;5039254;28;20214;-79
2023/04/04 09:37:07;;;;;;;5.80;2.70;;;14.10;92.50;;;;;;5039376;28;20290;-79
2023/04/04 09:39:38;;;;;;;4.30;2.47;;;14.10;92.30;;;;;;5041297;28;20285;-79
2023/04/04 09:42:06;;;;;;;6.67;2.30;;;14.10;92.20;;;;;;5041093;28;20245;-81
2023/04/04 09:44:35;;;;;;;4.07;2.20;;;14.10;92.10;;;;;;5041415;28;20201;-78
2023/04/04 09:47:22;;;;;;;4.43;2.47;;;14.00;92.40;;;;;;5041251;28;20205;-81
2023/04/04 09:50:01;;;;;;;4.57;2.40;;;13.90;91.90;;;;;;5038515;28;20552;-79
2023/04/04 09:52:32;;;;;;;4.80;2.83;;;13.90;92.00;;;;;;5040147;28;20304;-79
2023/04/04 09:55:00;;;;;;;8.63;2.83;;;13.70;92.50;;;;;;5041370;28;20284;-79
2023/04/04 09:57:33;;;;;;;5.13;2.70;;;13.60;92.50;;;;;;5038358;28;20320;-80
2023/04/04 10:00:03;;;;;;;6.60;3.00;;;13.40;92.70;;;;;;5042183;28;20210;-79
2023/04/04 10:02:30;;;;;;;4.00;2.90;;;13.50;92.70;;;;;;5024161;28;20248;-80
2023/04/04 10:04:57;;;;;;;4.50;2.97;;;13.50;92.90;;;;;;5043622;28;20197;-80
2023/04/04 10:07:32;;;;;;;5.60;2.83;;;13.40;92.00;;;;;;5039725;28;20287;-80
2023/04/04 10:10:05;;;;;;;4.20;2.83;;;13.30;92.40;;;;;;5045758;28;20258;-80
2023/04/04 10:12:32;;;;;;;3.87;2.90;;;13.40;92.90;;;;;;5043599;28;20217;-79
2023/04/04 10:15:00;;;;;;;6.53;3.00;;;13.40;93.20;;;;;;5047893;28;20194;-79
2023/04/04 10:17:35;;;;;;;5.17;2.80;;;13.30;92.10;;;;;;5038734;28;20311;-80
2023/04/04 10:20:07;;;;;;;3.47;2.87;;;13.10;92.60;;;;;;5044757;28;20208;-79
2023/04/04 10:22:36;;;;;;;5.63;3.50;;;13.10;92.90;;;;;;5039778;28;20252;-80
2023/04/04 10:25:04;;;;;;;4.85;2.90;;;13.10;92.20;;;;;;5042358;28;20456;-79
2023/04/04 10:27:32;;;;;;;7.30;3.40;;;13.10;93.70;;;;;;5042646;28;20248;-80
2023/04/04 10:29:59;;;;;;;6.73;3.73;;;13.10;93.80;;;;;;5042922;28;20728;-78
2023/04/04 10:32:44;;;;;;;5.53;3.47;;;12.90;93.20;;;;;;5041187;28;20217;-77
2023/04/04 10:35:12;;;;;;;6.90;3.27;;;12.90;92.10;;;;;;5044027;28;20210;-78
2023/04/04 10:38:08;;;;;;;4.40;3.30;;;12.50;92.20;;;;;;5040227;28;20232;-78
2023/04/04 10:40:38;;;;;;;4.03;2.73;;;12.50;92.90;;;;;;5022197;28;20202;-78
2023/04/04 10:43:06;;;;;;;6.63;3.23;;;12.30;93.10;;;;;;5038185;28;20205;-79
2023/04/04 10:45:38;;;;;;;4.37;3.27;;;12.30;93.50;;;;;;5045196;28;20206;-79
2023/04/04 10:48:07;;;;;;;5.67;3.10;;;12.00;93.90;;;;;;5046809;28;20602;-78
2023/04/04 10:50:38;;;;;;;6.03;2.90;;;12.00;94.20;;;;;;5049665;28;20281;-80
2023/04/04 10:53:06;;;;;;;5.63;3.10;;;11.90;94.70;;;;;;5029273;28;20201;-78
2023/04/04 10:55:35;;;;;;;6.63;3.23;;;12.00;94.50;;;;;;5030866;28;20209;-82
2023/04/04 10:58:07;;;;;;;5.80;2.90;;;12.00;94.20;;;;;;5032088;28;20225;-79
2023/04/04 11:00:51;;;;;;;4.43;2.80;;;12.00;93.90;;;;;;5026470;28;20217;-80
2023/04/04 11:03:18;;;;;;;5.73;3.07;;;12.10;93.60;;;;;;5029928;28;20217;-79
2023/04/04 11:05:46;;;;;;;5.73;3.20;;;12.20;94.40;;;;;;5033764;28;20680;-78
2023/04/04 11:08:23;;;;;;;4.90;3.20;;;12.20;94.50;;;;;;5029975;28;20292;-79
2023/04/04 11:10:52;;;;;;;5.70;3.47;;;12.20;93.30;;;;;;5036610;28;20214;-77
2023/04/04 11:13:31;;;;;;;3.97;2.70;;;12.00;93.20;;;;;;5029052;28;20233;-79
2023/04/04 11:15:59;;;;;;;6.00;3.73;;;12.00;93.30;;;;;;5024237;28;20689;-79
2023/04/04 11:18:42;;;;;;;3.80;2.40;;;12.10;94.00;;;;;;5049330;28;20256;-79
2023/04/04 11:21:14;;;;;;;5.47;3.20;;;12.30;94.40;;;;;;5049938;28;20683;-82
2023/04/04 11:23:47;;;;;;;5.63;3.30;;;12.40;94.00;;;;;;5029364;28;20645;-81
2023/04/04 11:26:26;;;;;;;6.13;2.77;;;12.30;92.60;;;;;;5032022;28;20701;-79
2023/04/04 11:28:58;;;;;;;7.03;3.17;;;12.40;92.50;;;;;;5028725;28;20220;-80
2023/04/04 11:31:28;;;;;;;4.57;3.00;;;12.50;92.90;;;;;;5042520;28;20198;-77
2023/04/04 11:34:02;;;;;;;5.03;2.70;;;12.70;93.30;;;;;;5022256;28;20244;-81
2023/04/04 11:36:35;;;;;;;6.73;3.00;;;12.70;93.30;;;;;;5025950;28;20221;-79
2023/04/04 11:39:27;;;;;;;8.17;3.83;;;12.80;94.20;;;;;;5044601;28;20209;-80
2023/04/04 11:42:06;;;;;;;7.43;3.73;;;12.80;94.70;;;;;;5046573;28;20205;-78
2023/04/04 11:45:03;;;;;;;6.67;3.30;;;12.90;93.40;;;;;;5041401;28;20229;-78
2023/04/04 11:47:30;;;;;;;9.50;3.53;;;12.90;91.90;;;;;;5042577;28;20742;-79
2023/04/04 11:49:59;;;;;;;5.30;3.10;;;12.90;92.80;;;;;;5045160;28;20287;-80
2023/04/04 11:52:33;;;;;;;6.83;3.43;;;13.00;92.70;;;;;;5047451;28;20280;-80
2023/04/04 11:55:00;;;;;;;4.67;3.07;;;13.10;93.10;;;;;;5042255;28;20210;-81
2023/04/04 11:57:27;;;;;;;6.67;3.53;;;13.10;93.10;;;;;;5041228;28;20242;-81
2023/04/04 11:59:54;;;;;;;5.27;3.30;;;13.10;92.20;;;;;;5031222;28;20201;-78
2023/04/04 12:02:33;;;;;;;5.43;3.30;;;13.20;92.40;;;;;;5045901;28;20221;-81
2023/04/04 12:05:00;;;;;;;7.20;3.40;;;13.10;92.30;;;;;;5029653;28;20198;-80
2023/04/04 12:07:30;;;;;;;6.80;3.47;;;13.20;92.70;;;;;;5024822;28;20209;-80
2023/04/04 12:09:58;;;;;;;6.10;3.70;;;13.20;93.20;;;;;;5043498;28;20682;-80
2023/04/04 12:12:27;;;;;;;7.57;3.40;;;13.30;93.70;;;;;;5043382;28;20288;-81
2023/04/04 12:14:54;;;;;;;7.00;3.50;;;13.30;94.00;;;;;;5047723;28;20209;-81
2023/04/04 12:17:42;;;;;;;8.07;3.70;;;13.20;93.50;;;;;;5040841;28;20244;-82
2023/04/04 12:20:10;;;;;;;9.60;3.90;;;13.20;94.20;;;;;;5030104;28;20215;-82
2023/04/04 12:22:37;;;;;;;5.40;3.27;;;13.40;94.00;;;;;;5031349;28;20650;-81
2023/04/04 12:25:05;;;;;;;6.83;3.73;;;13.70;94.10;;;;;;5024794;28;20198;-80
2023/04/04 12:27:32;;;;;;;9.43;3.80;;;13.70;94.00;;;;;;5046150;28;20638;-81
2023/04/04 12:30:00;;;;;;;5.83;3.70;;;13.80;93.60;;;;;;5046122;28;20205;-81
2023/04/04 12:32:26;;;;;;;5.43;3.23;;;13.90;92.90;;;;;;5032644;28;20225;-82
2023/04/04 12:35:00;;;;;;;6.50;3.53;;;14.00;92.80;;;;;;5042488;28;20216;-82
2023/04/04 12:37:29;;;;;;;5.60;3.30;;;13.80;93.30;;;;;;5026886;28;20647;-83
2023/04/04 12:39:57;;;;;;;4.67;3.67;;;13.70;93.80;;;;;;5047918;28;20204;-82
2023/04/04 12:42:27;;;;;;;5.70;3.60;;;13.70;93.90;;;;;;5024851;28;20296;-82
2023/04/04 12:44:56;;;;;;;4.50;3.50;;;13.70;93.80;;;;;;5029501;28;20212;-81
2023/04/04 12:47:24;;;;;;;4.30;3.23;;;13.70;93.40;;;;;;5026727;28;20603;-81
2023/04/04 12:49:53;;;;;;;8.53;3.33;;;13.60;92.50;;;;;;5043466;28;20561;-80
2023/04/04 12:52:25;;;;;;;5.13;3.73;;;13.70;92.70;;;;;;5046645;28;20465;-81
2023/04/04 12:54:52;;;;;;;6.93;3.70;;;13.60;93.60;;;;;;5042480;28;20214;-81
2023/04/04 12:57:39;;;;;;;6.63;4.07;;;13.60;92.90;;;;;;5041512;28;20217;-81